createdAt,value
2018-10-21T00:00:36.240Z,2.60
2018-10-21T00:03:05.615Z,2.60
2018-10-21T00:05:35.064Z,2.30
2018-10-21T00:08:04.180Z,2.80
2018-10-21T00:10:33.359Z,2.75
2018-10-21T00:13:02.940Z,2.30
2018-10-21T00:15:32.399Z,2.40
2018-10-21T00:18:01.345Z,2.17
2018-10-21T00:20:30.490Z,2.60
2018-10-21T00:22:59.852Z,2.40
2018-10-21T00:25:29.068Z,2.43
2018-10-21T00:27:58.541Z,2.53
2018-10-21T00:30:28.083Z,2.57
2018-10-21T00:32:57.313Z,2.40
2018-10-21T00:35:26.764Z,2.30
2018-10-21T00:37:55.875Z,2.43
2018-10-21T00:40:25.110Z,2.27
2018-10-21T00:42:54.531Z,2.50
2018-10-21T00:45:23.777Z,2.50
2018-10-21T00:47:52.881Z,2.20
2018-10-21T00:50:21.968Z,2.37
2018-10-21T00:52:51.304Z,2.37
2018-10-21T00:55:20.646Z,2.23
2018-10-21T00:57:49.949Z,2.17
2018-10-21T01:00:19.073Z,2.10
2018-10-21T01:02:48.345Z,2.07
2018-10-21T01:05:17.478Z,2.00
2018-10-21T01:07:46.870Z,1.87
2018-10-21T01:10:16.067Z,1.87
2018-10-21T01:12:45.196Z,1.70
2018-10-21T01:15:14.475Z,1.80
2018-10-21T01:17:43.672Z,1.67
2018-10-21T01:20:13.557Z,1.73
2018-10-21T01:22:44.087Z,2.10
2018-10-21T01:25:13.159Z,1.30
2018-10-21T01:27:42.895Z,1.20
2018-10-21T01:30:12.907Z,1.50
2018-10-21T01:32:42.106Z,1.77
2018-10-21T01:35:11.219Z,1.57
2018-10-21T01:37:40.910Z,1.10
2018-10-21T01:40:42.776Z,1.53
2018-10-21T01:43:13.642Z,1.80
2018-10-21T01:45:43.123Z,1.53
2018-10-21T01:48:13.764Z,1.40
2018-10-21T01:50:42.878Z,1.17
2018-10-21T01:53:13.188Z,1.50
2018-10-21T01:55:42.315Z,1.57
2018-10-21T01:58:11.545Z,1.60
2018-10-21T02:00:41.391Z,1.20
2018-10-21T02:03:10.649Z,1.40
2018-10-21T02:05:40.199Z,1.10
2018-10-21T02:08:09.289Z,1.10
2018-10-21T02:10:38.407Z,1.00
2018-10-21T02:13:07.815Z,1.53
2018-10-21T02:15:37.105Z,1.60
2018-10-21T02:18:06.507Z,1.50
2018-10-21T02:20:35.883Z,1.53
2018-10-21T02:23:05.114Z,1.20
2018-10-21T02:25:34.546Z,1.33
2018-10-21T02:28:03.680Z,1.20
2018-10-21T02:30:32.835Z,1.60
2018-10-21T02:33:02.429Z,1.67
2018-10-21T02:35:31.615Z,1.30
2018-10-21T02:38:00.694Z,1.63
2018-10-21T02:41:08.651Z,1.33
2018-10-21T02:43:37.778Z,1.40
2018-10-21T02:46:07.018Z,1.30
2018-10-21T02:48:36.330Z,1.50
2018-10-21T02:51:05.525Z,1.70
2018-10-21T02:53:35.029Z,1.43
2018-10-21T02:56:04.385Z,1.10
2018-10-21T02:58:33.684Z,1.47
2018-10-21T03:01:02.792Z,1.80
2018-10-21T03:03:31.965Z,2.02
2018-10-21T03:06:01.158Z,2.23
2018-10-21T03:08:30.471Z,1.30
2018-10-21T03:11:00.009Z,1.23
2018-10-21T03:13:29.122Z,1.53
2018-10-21T03:15:58.389Z,1.70
2018-10-21T03:18:27.669Z,2.00
2018-10-21T03:20:56.736Z,2.03
2018-10-21T03:23:26.097Z,1.90
2018-10-21T03:25:55.242Z,1.80
2018-10-21T03:28:24.345Z,1.80
2018-10-21T03:30:53.604Z,1.70
2018-10-21T03:33:22.917Z,1.80
2018-10-21T03:35:52.246Z,1.87
2018-10-21T03:38:21.489Z,1.50
2018-10-21T03:40:50.773Z,1.40
2018-10-21T03:43:20.220Z,1.50
2018-10-21T03:45:49.591Z,1.87
2018-10-21T03:48:18.887Z,1.20
2018-10-21T03:50:48.023Z,1.37
2018-10-21T03:53:17.297Z,1.30
2018-10-21T03:55:46.416Z,1.57
2018-10-21T03:58:15.580Z,1.30
2018-10-21T04:00:44.638Z,1.37
2018-10-21T04:03:13.851Z,1.50
2018-10-21T04:05:43.031Z,1.47
2018-10-21T04:08:12.132Z,1.80
2018-10-21T04:10:41.363Z,1.50
2018-10-21T04:13:10.608Z,1.90
2018-10-21T04:15:39.680Z,2.10
2018-10-21T04:18:08.759Z,2.40
2018-10-21T04:20:37.971Z,2.00
2018-10-21T04:23:07.198Z,1.73
2018-10-21T04:25:37.728Z,1.47
2018-10-21T04:28:07.425Z,1.50
2018-10-21T04:30:37.637Z,1.20
2018-10-21T04:33:34.730Z,1.30
2018-10-21T04:36:03.965Z,1.23
2018-10-21T04:39:19.636Z,1.50
2018-10-21T04:41:49.206Z,1.30
2018-10-21T04:44:18.305Z,1.10
2018-10-21T04:46:47.673Z,1.10
2018-10-21T04:49:17.303Z,1.10
2018-10-21T04:51:46.415Z,1.20
2018-10-21T04:54:15.698Z,1.50
2018-10-21T04:56:44.971Z,1.90
2018-10-21T04:59:14.182Z,1.93
2018-10-21T05:01:43.312Z,2.00
2018-10-21T05:04:12.392Z,2.13
2018-10-21T05:06:41.552Z,2.13
2018-10-21T05:09:10.855Z,1.87
2018-10-21T05:11:40.020Z,1.93
2018-10-21T05:14:09.306Z,2.30
2018-10-21T05:16:38.812Z,1.83
2018-10-21T05:19:07.973Z,1.70
2018-10-21T05:21:37.069Z,2.10
2018-10-21T05:24:06.716Z,1.70
2018-10-21T05:26:36.101Z,2.30
2018-10-21T05:29:05.277Z,3.00
2018-10-21T05:31:34.637Z,2.70
2018-10-21T05:34:04.618Z,2.50
2018-10-21T05:36:33.701Z,2.37
2018-10-21T05:39:02.833Z,2.20
2018-10-21T05:41:32.038Z,2.57
2018-10-21T05:44:01.172Z,3.10
2018-10-21T05:46:49.392Z,3.00
2018-10-21T05:49:18.483Z,3.13
2018-10-21T05:51:48.961Z,3.20
2018-10-21T05:54:19.103Z,3.00
2018-10-21T05:56:51.876Z,3.97
2018-10-21T05:59:21.122Z,3.00
2018-10-21T06:01:50.530Z,8.13
2018-10-21T06:04:19.753Z,10.40
2018-10-21T06:06:49.180Z,5.10
2018-10-21T06:09:18.268Z,3.93
2018-10-21T06:11:47.396Z,4.17
2018-10-21T06:14:16.515Z,4.10
2018-10-21T06:17:07.033Z,3.30
2018-10-21T06:19:39.147Z,3.50
2018-10-21T06:22:08.469Z,3.70
2018-10-21T06:24:37.605Z,3.80
2018-10-21T06:27:07.031Z,4.03
2018-10-21T06:29:36.116Z,3.50
2018-10-21T06:32:05.365Z,3.50
2018-10-21T06:34:34.622Z,4.30
2018-10-21T06:37:03.761Z,3.47
2018-10-21T06:39:32.860Z,4.03
2018-10-21T06:42:02.237Z,2.97
2018-10-21T06:44:31.517Z,3.37
2018-10-21T06:47:00.701Z,4.53
2018-10-21T06:49:30.023Z,3.87
2018-10-21T06:51:59.509Z,3.83
2018-10-21T06:54:29.049Z,3.70
2018-10-21T06:56:58.632Z,4.70
2018-10-21T06:59:27.714Z,3.73
2018-10-21T07:01:56.949Z,4.70
2018-10-21T07:04:26.166Z,4.17
2018-10-21T07:06:55.171Z,4.83
2018-10-21T07:09:24.450Z,4.73
2018-10-21T07:11:53.581Z,10.90
2018-10-21T07:14:22.823Z,14.70
2018-10-21T07:16:52.292Z,6.10
2018-10-21T07:19:21.421Z,5.60
2018-10-21T07:21:50.735Z,4.83
2018-10-21T07:24:20.125Z,5.22
2018-10-21T07:26:49.346Z,4.00
2018-10-21T07:29:18.628Z,5.50
2018-10-21T07:31:47.827Z,4.00
2018-10-21T07:34:17.143Z,5.10
2018-10-21T07:36:46.862Z,4.60
2018-10-21T07:39:16.164Z,5.00
2018-10-21T07:41:45.660Z,4.40
2018-10-21T07:44:15.180Z,4.50
2018-10-21T07:46:44.423Z,4.33
2018-10-21T07:49:13.848Z,5.43
2018-10-21T07:51:43.170Z,4.43
2018-10-21T07:54:12.400Z,4.50
2018-10-21T07:56:41.519Z,4.87
2018-10-21T07:59:10.767Z,35.53
2018-10-21T08:01:40.158Z,23.87
2018-10-21T08:04:09.471Z,17.23
2018-10-21T08:07:15.059Z,7.67
2018-10-21T08:09:44.685Z,5.20
2018-10-21T08:12:14.324Z,4.63
2018-10-21T08:14:43.750Z,5.10
2018-10-21T08:17:12.949Z,4.07
2018-10-21T08:19:42.268Z,5.60
2018-10-21T08:22:11.727Z,5.60
2018-10-21T08:24:41.151Z,4.60
2018-10-21T08:27:10.281Z,4.10
2018-10-21T08:29:39.967Z,4.77
2018-10-21T08:32:09.377Z,26.27
2018-10-21T08:34:38.910Z,15.77
2018-10-21T08:37:08.175Z,11.20
2018-10-21T08:39:37.600Z,6.73
2018-10-21T08:42:06.830Z,6.27
2018-10-21T08:44:36.241Z,5.40
2018-10-21T08:47:05.813Z,5.63
2018-10-21T08:49:35.291Z,5.77
2018-10-21T08:52:04.747Z,5.30
2018-10-21T08:54:34.199Z,5.70
2018-10-21T08:57:03.495Z,6.15
2018-10-21T08:59:32.655Z,6.03
2018-10-21T09:02:02.077Z,5.23
2018-10-21T09:04:31.228Z,5.73
2018-10-21T09:07:19.554Z,6.00
2018-10-21T09:09:48.840Z,6.00
2018-10-21T09:12:18.172Z,6.07
2018-10-21T09:14:48.674Z,4.93
2018-10-21T09:17:17.595Z,5.93
2018-10-21T09:19:47.069Z,6.47
2018-10-21T09:22:16.397Z,6.40
2018-10-21T09:24:45.645Z,5.93
2018-10-21T09:27:14.972Z,6.10
2018-10-21T09:29:44.218Z,5.30
2018-10-21T09:32:13.437Z,5.07
2018-10-21T09:34:42.772Z,6.53
2018-10-21T09:37:12.036Z,5.50
2018-10-21T09:39:41.302Z,5.45
2018-10-21T09:42:11.167Z,5.30
2018-10-21T09:44:40.823Z,4.27
2018-10-21T09:47:10.307Z,4.30
2018-10-21T09:49:39.476Z,19.17
2018-10-21T09:52:09.179Z,8.98
2018-10-21T09:54:38.404Z,4.20
2018-10-21T09:57:08.131Z,3.70
2018-10-21T09:59:37.463Z,3.60
2018-10-21T10:02:24.906Z,3.15
2018-10-21T10:04:54.145Z,3.47
2018-10-21T10:07:23.752Z,4.25
2018-10-21T10:09:53.363Z,3.25
2018-10-21T10:12:22.765Z,3.30
2018-10-21T10:14:52.063Z,3.65
2018-10-21T10:17:21.167Z,4.10
2018-10-21T10:19:50.586Z,3.52
2018-10-21T10:22:20.000Z,3.52
2018-10-21T10:24:49.548Z,4.25
2018-10-21T10:27:18.829Z,3.40
2018-10-21T10:29:48.198Z,2.80
2018-10-21T10:32:17.562Z,3.52
2018-10-21T10:55:03.773Z,2.40
2018-10-21T10:57:32.954Z,2.23
2018-10-21T11:00:02.516Z,2.60
2018-10-21T11:02:31.689Z,2.20
2018-10-21T11:05:00.853Z,2.30
2018-10-21T11:07:30.132Z,2.30
2018-10-21T11:09:59.687Z,2.20
2018-10-21T11:12:29.173Z,1.90
2018-10-21T11:14:58.564Z,2.17
2018-10-21T11:17:28.206Z,2.00
2018-10-21T11:19:57.891Z,1.80
2018-10-21T11:22:27.207Z,2.27
2018-10-21T11:24:56.553Z,2.13
2018-10-21T11:27:26.007Z,2.40
2018-10-21T11:29:55.208Z,2.30
2018-10-21T11:32:24.854Z,2.27
2018-10-21T11:34:54.248Z,2.53
2018-10-21T11:37:23.626Z,2.20
2018-10-21T11:39:52.927Z,2.33
2018-10-21T11:42:22.629Z,2.10
2018-10-21T11:44:52.039Z,1.93
2018-10-21T11:47:21.228Z,2.07
2018-10-21T11:49:50.511Z,2.43
2018-10-21T11:52:19.670Z,2.20
2018-10-21T11:54:48.978Z,2.33
2018-10-21T11:57:18.344Z,2.23
2018-10-21T11:59:47.940Z,2.20
2018-10-21T12:02:17.189Z,2.10
2018-10-21T12:04:47.047Z,2.95
2018-10-21T12:07:16.306Z,2.87
2018-10-21T12:09:45.579Z,2.40
2018-10-21T12:12:14.853Z,2.13
2018-10-21T12:14:44.043Z,2.67
2018-10-21T12:17:13.481Z,2.17
2018-10-21T12:19:42.771Z,2.30
2018-10-21T12:22:12.090Z,2.73
2018-10-21T12:24:41.473Z,2.50
2018-10-21T12:27:10.968Z,2.70
2018-10-21T12:29:40.145Z,2.40
2018-10-21T12:32:09.580Z,2.20
2018-10-21T12:34:38.873Z,2.80
2018-10-21T12:37:08.417Z,2.57
2018-10-21T12:39:37.891Z,1.93
2018-10-21T12:42:07.170Z,2.37
2018-10-21T12:44:36.366Z,2.00
2018-10-21T12:47:06.165Z,2.20
2018-10-21T12:49:35.370Z,1.92
2018-10-21T12:52:04.776Z,2.40
2018-10-21T12:54:34.407Z,2.50
2018-10-21T12:57:03.697Z,1.80
2018-10-21T12:59:33.102Z,2.10
2018-10-21T13:02:02.377Z,1.90
2018-10-21T13:04:31.595Z,2.23
2018-10-21T13:07:00.934Z,2.67
2018-10-21T13:09:30.455Z,2.90
2018-10-21T13:11:59.802Z,2.00
2018-10-21T13:14:29.304Z,2.30
2018-10-21T13:16:58.969Z,2.10
2018-10-21T13:19:28.370Z,2.50
2018-10-21T13:21:57.871Z,2.30
2018-10-21T13:24:27.425Z,2.97
2018-10-21T13:26:56.879Z,2.57
2018-10-21T13:29:26.249Z,2.20
2018-10-21T13:31:55.693Z,2.33
2018-10-21T13:34:25.077Z,2.60
2018-10-21T13:36:54.530Z,2.83
2018-10-21T13:39:24.209Z,2.13
2018-10-21T13:41:53.464Z,2.50
2018-10-21T13:44:22.851Z,2.60
2018-10-21T13:46:52.410Z,2.77
2018-10-21T13:49:22.086Z,2.90
2018-10-21T13:51:51.603Z,2.43
2018-10-21T13:54:21.271Z,2.43
2018-10-21T13:56:50.734Z,2.10
2018-10-21T13:59:19.972Z,3.53
2018-10-21T14:01:49.336Z,3.20
2018-10-21T14:04:18.835Z,2.87
2018-10-21T14:06:48.280Z,2.97
2018-10-21T14:09:17.553Z,3.23
2018-10-21T14:11:47.051Z,2.67
2018-10-21T14:14:16.434Z,3.50
2018-10-21T14:16:45.855Z,4.25
2018-10-21T14:19:15.340Z,4.00
2018-10-21T14:21:44.727Z,3.03
2018-10-21T14:24:14.622Z,4.83
2018-10-21T14:26:44.760Z,4.17
2018-10-21T14:29:14.270Z,4.53
2018-10-21T14:31:43.619Z,4.17
2018-10-21T14:34:12.967Z,4.93
2018-10-21T14:36:42.371Z,4.67
2018-10-21T14:39:13.384Z,4.60
2018-10-21T14:41:42.544Z,4.03
2018-10-21T14:44:11.706Z,4.20
2018-10-21T14:46:41.004Z,4.67
2018-10-21T14:49:10.818Z,5.27
2018-10-21T14:51:40.336Z,4.53
2018-10-21T14:54:09.762Z,5.27
2018-10-21T14:56:39.022Z,5.90
2018-10-21T14:59:08.235Z,6.00
2018-10-21T15:01:37.891Z,5.50
2018-10-21T15:04:07.407Z,5.80
2018-10-21T15:06:36.671Z,5.10
2018-10-21T15:09:10.013Z,5.30
2018-10-21T15:11:39.311Z,4.67
2018-10-21T15:14:08.464Z,6.70
2018-10-21T15:16:37.865Z,7.03
2018-10-21T15:19:07.271Z,6.63
2018-10-21T15:21:36.464Z,6.80
2018-10-21T15:24:05.877Z,7.10
2018-10-21T15:26:35.024Z,6.80
2018-10-21T15:29:04.413Z,5.57
2018-10-21T15:31:33.813Z,6.90
2018-10-21T15:34:03.413Z,6.70
2018-10-21T15:36:32.765Z,6.63
2018-10-21T15:39:02.016Z,7.20
2018-10-21T15:41:31.489Z,6.43
2018-10-21T15:44:00.797Z,6.67
2018-10-21T15:46:30.119Z,7.00
2018-10-21T15:48:59.628Z,8.50
2018-10-21T15:51:29.414Z,6.83
2018-10-21T15:53:58.734Z,6.50
2018-10-21T15:56:28.526Z,5.97
2018-10-21T15:58:57.905Z,6.73
2018-10-21T16:01:27.356Z,7.47
2018-10-21T16:03:56.854Z,6.33
2018-10-21T16:06:26.377Z,6.87
2018-10-21T16:08:55.684Z,7.27
2018-10-21T16:11:25.050Z,8.73
2018-10-21T16:13:54.472Z,8.88
2018-10-21T16:16:23.884Z,8.17
2018-10-21T16:18:53.245Z,7.70
2018-10-21T16:21:22.569Z,31.87
2018-10-21T16:23:52.275Z,55.27
2018-10-21T16:26:21.776Z,14.90
2018-10-21T16:28:51.031Z,10.75
2018-10-21T16:31:20.597Z,10.70
2018-10-21T16:33:49.975Z,10.30
2018-10-21T16:36:21.468Z,9.03
2018-10-21T16:38:50.985Z,11.37
2018-10-21T16:41:21.266Z,24.73
2018-10-21T16:43:50.548Z,16.03
2018-10-21T16:46:19.918Z,12.97
2018-10-21T16:48:49.385Z,22.63
2018-10-21T16:51:18.711Z,24.50
2018-10-21T16:53:48.089Z,13.90
2018-10-21T16:56:17.503Z,13.10
2018-10-21T16:58:46.714Z,12.20
2018-10-21T17:01:16.226Z,9.83
2018-10-21T17:03:45.640Z,11.20
2018-10-21T17:06:14.918Z,9.10
2018-10-21T17:08:44.618Z,11.13
2018-10-21T17:11:14.167Z,12.05
2018-10-21T17:13:43.751Z,10.27
2018-10-21T17:16:13.277Z,11.43
2018-10-21T17:18:42.606Z,9.90
2018-10-21T17:21:12.040Z,11.13
2018-10-21T17:23:41.565Z,10.83
2018-10-21T17:26:11.448Z,11.00
2018-10-21T17:28:40.920Z,12.73
2018-10-21T17:31:10.316Z,11.87
2018-10-21T17:33:39.493Z,11.77
2018-10-21T17:36:09.287Z,11.87
2018-10-21T17:38:38.807Z,14.63
2018-10-21T17:41:08.165Z,43.10
2018-10-21T17:43:37.778Z,38.97
2018-10-21T17:46:07.233Z,120.60
2018-10-21T17:48:36.607Z,20.07
2018-10-21T17:51:06.094Z,14.00
2018-10-21T17:53:36.555Z,12.23
2018-10-21T17:56:06.222Z,12.73
2018-10-21T17:58:35.701Z,13.27
2018-10-21T18:01:04.875Z,12.57
2018-10-21T18:03:34.323Z,12.83
2018-10-21T18:06:03.649Z,12.53
2018-10-21T18:08:32.978Z,10.60
2018-10-21T18:11:02.424Z,12.23
2018-10-21T18:13:31.716Z,12.63
2018-10-21T18:16:01.129Z,12.40
2018-10-21T18:18:30.579Z,12.88
2018-10-21T18:21:00.038Z,12.80
2018-10-21T18:23:29.489Z,11.57
2018-10-21T18:25:58.861Z,13.43
2018-10-21T18:28:28.359Z,14.10
2018-10-21T18:30:57.579Z,11.67
2018-10-21T18:33:26.980Z,13.10
2018-10-21T18:35:56.677Z,82.33
2018-10-21T18:38:25.944Z,58.60
2018-10-21T18:40:55.181Z,22.20
2018-10-21T18:43:24.482Z,14.77
2018-10-21T18:45:54.066Z,15.67
2018-10-21T18:48:23.486Z,13.73
2018-10-21T18:50:52.729Z,13.30
2018-10-21T18:53:22.131Z,12.70
2018-10-21T18:55:51.444Z,13.47
2018-10-21T18:58:20.797Z,14.37
2018-10-21T19:00:50.246Z,13.18
2018-10-21T19:03:19.904Z,12.43
2018-10-21T19:05:49.104Z,13.17
2018-10-21T19:08:18.541Z,12.97
2018-10-21T19:10:47.827Z,13.30
2018-10-21T19:13:17.567Z,12.37
2018-10-21T19:15:47.149Z,16.57
2018-10-21T19:18:16.514Z,13.13
2018-10-21T19:20:45.654Z,13.63
2018-10-21T19:23:15.064Z,11.93
2018-10-21T19:25:44.233Z,11.93
2018-10-21T19:28:13.677Z,11.40
2018-10-21T19:30:42.856Z,12.70
2018-10-21T19:33:12.237Z,11.97
2018-10-21T19:35:41.852Z,10.60
2018-10-21T19:38:11.149Z,10.27
2018-10-21T19:40:40.654Z,10.90
2018-10-21T19:43:10.737Z,11.85
2018-10-21T19:45:39.939Z,12.67
2018-10-21T19:48:09.603Z,12.97
2018-10-21T19:50:38.980Z,12.10
2018-10-21T19:53:08.305Z,13.27
2018-10-21T19:55:37.585Z,13.23
2018-10-21T19:58:06.812Z,12.70
2018-10-21T20:00:36.337Z,10.93
2018-10-21T20:03:05.885Z,11.53
2018-10-21T20:05:35.232Z,12.50
2018-10-21T20:08:04.761Z,12.43
2018-10-21T20:10:34.214Z,13.60
2018-10-21T20:13:03.509Z,11.00
2018-10-21T20:15:33.065Z,12.03
2018-10-21T20:18:02.630Z,11.37
2018-10-21T20:20:31.926Z,11.47
2018-10-21T20:23:01.220Z,10.10
2018-10-21T20:25:30.658Z,11.20
2018-10-21T20:27:59.948Z,10.27
2018-10-21T20:30:29.390Z,12.40
2018-10-21T20:32:59.247Z,12.57
2018-10-21T20:35:28.329Z,14.63
2018-10-21T20:37:58.176Z,14.60
2018-10-21T20:40:27.573Z,12.33
2018-10-21T20:42:57.079Z,11.57
2018-10-21T20:45:26.785Z,12.47
2018-10-21T20:47:55.934Z,11.77
2018-10-21T20:50:25.377Z,11.73
2018-10-21T20:52:54.607Z,11.73
2018-10-21T20:55:23.904Z,11.57
2018-10-21T20:57:53.228Z,10.80
2018-10-21T21:00:22.536Z,10.97
2018-10-21T21:02:52.185Z,10.93
2018-10-21T21:05:21.475Z,11.07
2018-10-21T21:07:50.643Z,11.37
2018-10-21T21:10:20.077Z,12.40
2018-10-21T21:12:49.277Z,11.83
2018-10-21T21:15:18.835Z,11.57
2018-10-21T21:17:51.663Z,13.87
2018-10-21T21:20:20.984Z,14.13
2018-10-21T21:22:50.144Z,13.80
2018-10-21T21:25:19.498Z,15.48
2018-10-21T21:27:48.914Z,12.90
2018-10-21T21:30:18.614Z,12.13
2018-10-21T21:32:48.099Z,12.73
2018-10-21T21:35:17.678Z,12.80
2018-10-21T21:37:46.862Z,11.07
2018-10-21T21:40:16.255Z,11.40
2018-10-21T21:42:45.488Z,12.57
2018-10-21T21:45:14.813Z,11.10
2018-10-21T21:47:43.984Z,11.27
2018-10-21T21:50:13.204Z,12.00
2018-10-21T21:52:42.604Z,11.23
2018-10-21T21:55:11.901Z,14.40
2018-10-21T21:57:41.064Z,12.60
2018-10-21T22:00:12.300Z,12.40
2018-10-21T22:02:41.528Z,13.03
2018-10-21T22:05:10.904Z,10.83
2018-10-21T22:07:41.009Z,10.27
2018-10-21T22:10:12.646Z,13.48
2018-10-21T22:12:42.204Z,10.67
2018-10-21T22:15:11.437Z,12.00
2018-10-21T22:17:41.451Z,11.17
2018-10-21T22:20:11.560Z,12.83
2018-10-21T22:22:40.806Z,12.03
2018-10-21T22:25:10.461Z,12.90
2018-10-21T22:27:39.761Z,13.43
2018-10-21T22:30:10.453Z,13.13
2018-10-21T22:32:39.753Z,11.80
2018-10-21T22:35:09.820Z,12.70
2018-10-21T22:37:39.204Z,11.57
2018-10-21T22:40:08.491Z,13.20
2018-10-21T22:42:37.943Z,13.33
2018-10-21T22:45:08.806Z,12.67
2018-10-21T22:47:38.311Z,9.10
2018-10-21T22:50:08.963Z,12.47
2018-10-21T22:52:38.153Z,11.30
2018-10-21T22:55:07.926Z,14.25
2018-10-21T22:57:37.025Z,11.87
2018-10-21T23:00:07.902Z,10.00
2018-10-21T23:02:37.248Z,10.83
2018-10-21T23:05:07.492Z,13.07
2018-10-21T23:07:36.919Z,12.30
2018-10-21T23:10:06.232Z,12.80
2018-10-21T23:12:35.297Z,10.80
2018-10-21T23:15:04.604Z,9.80
2018-10-21T23:17:33.970Z,11.10
2018-10-21T23:20:03.281Z,10.00
2018-10-21T23:22:32.662Z,12.33
2018-10-21T23:25:01.718Z,11.23
2018-10-21T23:27:30.851Z,11.10
2018-10-21T23:30:00.125Z,9.97
2018-10-21T23:32:29.358Z,11.00
2018-10-21T23:34:58.463Z,12.60
2018-10-21T23:37:28.141Z,10.90
2018-10-21T23:39:57.660Z,12.10
2018-10-21T23:42:27.081Z,15.75
2018-10-21T23:44:56.224Z,14.27
2018-10-21T23:47:25.581Z,15.23
2018-10-21T23:49:55.080Z,12.50
2018-10-21T23:52:24.253Z,13.10
2018-10-21T23:54:53.577Z,13.33
2018-10-21T23:57:22.869Z,11.57
2018-10-21T23:59:52.147Z,11.37
